createdAt,value
2022-10-17T00:01:43.559Z,97.59
2022-10-17T00:04:09.831Z,97.86
2022-10-17T00:06:36.103Z,97.71
2022-10-17T00:09:02.352Z,97.81
2022-10-17T00:11:28.603Z,98.91
2022-10-17T00:13:54.888Z,99.10
2022-10-17T00:16:21.130Z,99.29
2022-10-17T00:18:47.392Z,99.59
2022-10-17T00:21:13.638Z,99.92
2022-10-17T00:23:39.903Z,100.00
2022-10-17T00:26:06.196Z,100.00
2022-10-17T00:28:32.521Z,100.00
2022-10-17T00:30:58.806Z,100.00
2022-10-17T00:33:25.062Z,100.00
2022-10-17T00:35:51.310Z,100.00
2022-10-17T00:38:17.605Z,100.00
2022-10-17T00:40:44.212Z,100.00
2022-10-17T00:43:10.486Z,100.00
2022-10-17T00:45:36.748Z,100.00
2022-10-17T00:48:03.838Z,100.00
2022-10-17T00:50:30.030Z,100.00
2022-10-17T00:52:56.324Z,100.00
2022-10-17T00:55:22.608Z,100.00
2022-10-17T00:57:48.864Z,100.00
2022-10-17T01:00:15.144Z,100.00
2022-10-17T01:02:41.426Z,100.00
2022-10-17T01:05:07.758Z,100.00
2022-10-17T01:07:37.140Z,100.00
2022-10-17T01:10:03.696Z,100.00
2022-10-17T01:12:30.292Z,100.00
2022-10-17T01:14:56.890Z,100.00
2022-10-17T01:17:23.157Z,100.00
2022-10-17T01:19:49.410Z,100.00
2022-10-17T01:22:15.660Z,100.00
2022-10-17T01:24:42.076Z,100.00
2022-10-17T01:27:08.325Z,100.00
2022-10-17T01:29:34.583Z,100.00
2022-10-17T01:32:00.896Z,100.00
2022-10-17T01:34:27.319Z,100.00
2022-10-17T01:36:53.578Z,100.00
2022-10-17T01:39:19.855Z,100.00
2022-10-17T01:41:46.107Z,100.00
2022-10-17T01:44:12.386Z,100.00
2022-10-17T01:46:38.698Z,100.00
2022-10-17T01:49:05.082Z,100.00
2022-10-17T01:51:31.324Z,100.00
2022-10-17T01:53:57.575Z,100.00
2022-10-17T01:56:23.824Z,100.00
2022-10-17T01:58:50.071Z,100.00
2022-10-17T02:01:16.482Z,100.00
2022-10-17T02:03:42.772Z,100.00
2022-10-17T02:06:09.036Z,100.00
2022-10-17T02:08:35.299Z,100.00
2022-10-17T02:11:01.567Z,100.00
2022-10-17T02:13:27.834Z,100.00
2022-10-17T02:15:54.096Z,100.00
2022-10-17T02:18:20.359Z,100.00
2022-10-17T02:20:46.626Z,100.00
2022-10-17T02:23:12.944Z,100.00
2022-10-17T02:25:40.133Z,100.00
2022-10-17T02:28:06.394Z,100.00
2022-10-17T02:30:32.655Z,100.00
2022-10-17T02:32:58.922Z,100.00
2022-10-17T02:35:25.191Z,100.00
2022-10-17T02:37:51.456Z,100.00
2022-10-17T02:40:17.707Z,100.00
2022-10-17T02:42:43.955Z,100.00
2022-10-17T02:45:10.205Z,100.00
2022-10-17T02:47:36.494Z,100.00
2022-10-17T02:50:02.754Z,100.00
2022-10-17T02:52:29.168Z,100.00
2022-10-17T02:54:55.618Z,100.00
2022-10-17T02:57:21.876Z,100.00
2022-10-17T02:59:48.152Z,100.00
2022-10-17T03:02:14.399Z,100.00
2022-10-17T03:04:40.664Z,100.00
2022-10-17T03:07:06.923Z,100.00
2022-10-17T03:09:33.187Z,100.00
2022-10-17T03:11:59.468Z,100.00
2022-10-17T03:14:25.734Z,100.00
2022-10-17T03:16:52.005Z,100.00
2022-10-17T03:19:18.255Z,100.00
2022-10-17T03:21:44.518Z,100.00
2022-10-17T03:24:10.787Z,100.00
2022-10-17T03:26:37.116Z,100.00
2022-10-17T03:29:03.556Z,100.00
2022-10-17T03:31:29.855Z,100.00
2022-10-17T03:33:56.130Z,100.00
2022-10-17T03:36:22.386Z,100.00
2022-10-17T03:38:48.635Z,100.00
2022-10-17T03:41:14.885Z,100.00
2022-10-17T03:43:41.146Z,100.00
2022-10-17T03:46:07.463Z,100.00
2022-10-17T03:48:33.794Z,100.00
2022-10-17T03:51:00.423Z,100.00
2022-10-17T03:53:29.931Z,100.00
2022-10-17T03:55:56.191Z,100.00
2022-10-17T03:58:22.474Z,100.00
2022-10-17T04:00:48.736Z,100.00
2022-10-17T04:03:17.204Z,100.00
2022-10-17T04:05:43.673Z,100.00
2022-10-17T04:08:09.931Z,100.00
2022-10-17T04:10:36.206Z,100.00
2022-10-17T04:13:02.484Z,100.00
2022-10-17T04:15:28.980Z,100.00
2022-10-17T04:17:55.271Z,100.00
2022-10-17T04:20:21.576Z,100.00
2022-10-17T04:22:47.959Z,100.00
2022-10-17T04:25:14.206Z,100.00
2022-10-17T04:27:40.467Z,100.00
2022-10-17T04:30:06.736Z,100.00
2022-10-17T04:32:33.207Z,100.00
2022-10-17T04:34:59.473Z,100.00
2022-10-17T04:37:25.723Z,100.00
2022-10-17T04:39:51.994Z,100.00
2022-10-17T04:42:18.259Z,100.00
2022-10-17T04:44:44.531Z,100.00
2022-10-17T04:47:10.810Z,100.00
2022-10-17T04:49:37.107Z,100.00
2022-10-17T04:52:03.477Z,100.00
2022-10-17T04:54:29.751Z,100.00
2022-10-17T04:56:56.055Z,100.00
2022-10-17T04:59:22.452Z,100.00
2022-10-17T05:01:48.714Z,100.00
2022-10-17T05:04:14.981Z,100.00
2022-10-17T05:06:41.402Z,100.00
2022-10-17T05:09:07.739Z,100.00
2022-10-17T05:11:33.996Z,100.00
2022-10-17T05:14:00.265Z,100.00
2022-10-17T05:16:26.532Z,100.00
2022-10-17T05:18:53.259Z,100.00
2022-10-17T05:21:19.634Z,100.00
2022-10-17T05:23:45.922Z,100.00
2022-10-17T05:26:12.179Z,100.00
2022-10-17T05:28:38.501Z,100.00
2022-10-17T05:31:04.855Z,100.00
2022-10-17T05:33:31.124Z,100.00
2022-10-17T05:35:57.387Z,100.00
2022-10-17T05:38:23.638Z,100.00
2022-10-17T05:40:49.899Z,100.00
2022-10-17T05:43:16.159Z,100.00
2022-10-17T05:45:42.410Z,100.00
2022-10-17T05:48:09.355Z,100.00
2022-10-17T05:50:35.613Z,100.00
2022-10-17T05:53:01.858Z,100.00
2022-10-17T05:55:28.114Z,100.00
2022-10-17T05:57:54.385Z,100.00
2022-10-17T06:00:20.652Z,100.00
2022-10-17T06:02:46.985Z,100.00
2022-10-17T06:05:13.254Z,100.00
2022-10-17T06:07:39.528Z,100.00
2022-10-17T06:10:05.797Z,100.00
2022-10-17T06:12:32.229Z,100.00
2022-10-17T06:14:58.888Z,100.00
2022-10-17T06:17:25.153Z,100.00
2022-10-17T06:19:51.418Z,100.00
2022-10-17T06:22:17.696Z,100.00
2022-10-17T06:24:43.950Z,100.00
2022-10-17T06:27:11.925Z,100.00
2022-10-17T06:29:38.482Z,100.00
2022-10-17T06:32:04.726Z,100.00
2022-10-17T06:34:31.040Z,100.00
2022-10-17T06:39:33.743Z,100.00
2022-10-17T06:42:00.117Z,100.00
2022-10-17T06:44:30.534Z,100.00
2022-10-17T06:46:56.826Z,100.00
2022-10-17T06:49:23.186Z,100.00
2022-10-17T06:51:49.439Z,100.00
2022-10-17T06:54:15.682Z,100.00
2022-10-17T06:56:41.944Z,100.00
2022-10-17T06:59:08.201Z,100.00
2022-10-17T07:01:34.480Z,100.00
2022-10-17T07:04:00.747Z,100.00
2022-10-17T07:06:27.048Z,100.00
2022-10-17T07:08:55.514Z,100.00
2022-10-17T07:11:21.829Z,100.00
2022-10-17T07:13:48.101Z,99.51
2022-10-17T07:16:14.356Z,99.32
2022-10-17T07:18:40.652Z,98.45
2022-10-17T07:21:08.431Z,97.87
2022-10-17T07:23:36.990Z,97.26
2022-10-17T07:26:03.242Z,97.08
2022-10-17T07:28:29.549Z,96.29
2022-10-17T07:30:55.841Z,95.88
2022-10-17T07:33:22.115Z,95.38
2022-10-17T07:35:48.694Z,95.03
2022-10-17T07:38:14.998Z,95.12
2022-10-17T07:40:41.255Z,93.71
2022-10-17T07:43:07.526Z,93.36
2022-10-17T07:45:33.795Z,92.68
2022-10-17T07:48:00.067Z,92.30
2022-10-17T07:50:26.357Z,91.73
2022-10-17T07:52:52.750Z,90.92
2022-10-17T07:55:19.006Z,91.76
2022-10-17T07:57:45.319Z,90.56
2022-10-17T08:00:11.579Z,90.04
2022-10-17T08:02:38.080Z,89.74
2022-10-17T08:05:04.374Z,89.64
2022-10-17T08:07:30.710Z,89.41
2022-10-17T08:09:57.167Z,88.41
2022-10-17T08:12:24.215Z,87.93
2022-10-17T08:14:50.406Z,88.08
2022-10-17T08:17:16.665Z,87.77
2022-10-17T08:19:44.859Z,87.42
2022-10-17T08:22:11.123Z,86.45
2022-10-17T08:24:37.753Z,86.00
2022-10-17T08:27:11.115Z,85.97
2022-10-17T08:29:37.409Z,84.90
2022-10-17T08:32:05.478Z,84.61
2022-10-17T08:34:32.788Z,84.82
2022-10-17T08:36:59.149Z,84.75
2022-10-17T08:39:25.476Z,84.58
2022-10-17T08:41:51.737Z,84.89
2022-10-17T08:44:18.000Z,84.40
2022-10-17T08:46:44.285Z,84.25
2022-10-17T08:49:12.057Z,84.32
2022-10-17T08:51:38.385Z,83.63
2022-10-17T08:54:05.175Z,83.38
2022-10-17T08:56:44.600Z,82.58
2022-10-17T08:59:15.159Z,81.92
2022-10-17T09:01:41.436Z,81.16
2022-10-17T09:04:07.735Z,81.72
2022-10-17T09:06:34.029Z,81.29
2022-10-17T09:09:00.315Z,81.26
2022-10-17T09:11:26.582Z,81.20
2022-10-17T09:13:52.836Z,80.55
2022-10-17T09:16:19.411Z,80.58
2022-10-17T09:18:45.666Z,80.21
2022-10-17T09:21:12.254Z,79.94
2022-10-17T09:23:40.438Z,80.48
2022-10-17T09:26:08.752Z,79.28
2022-10-17T09:28:35.110Z,79.27
2022-10-17T09:31:01.471Z,79.03
2022-10-17T09:33:42.207Z,78.72
2022-10-17T09:36:16.034Z,78.28
2022-10-17T09:38:42.340Z,78.23
2022-10-17T09:41:25.587Z,77.81
2022-10-17T09:43:54.863Z,77.14
2022-10-17T09:46:21.124Z,77.47
2022-10-17T09:48:49.822Z,77.56
2022-10-17T09:51:25.866Z,76.53
2022-10-17T09:53:52.635Z,76.16
2022-10-17T09:56:18.887Z,75.98
2022-10-17T09:58:45.163Z,75.98
2022-10-17T10:01:11.511Z,76.08
2022-10-17T10:03:37.819Z,76.08
2022-10-17T10:06:04.128Z,75.50
2022-10-17T10:08:30.485Z,75.12
2022-10-17T10:10:56.748Z,74.94
2022-10-17T10:13:23.017Z,74.54
2022-10-17T10:15:49.279Z,73.80
2022-10-17T10:18:15.540Z,73.74
2022-10-17T10:20:46.587Z,73.33
2022-10-17T10:23:13.564Z,73.29
2022-10-17T10:25:39.772Z,73.59
2022-10-17T10:28:06.055Z,72.22
2022-10-17T10:30:36.127Z,72.70
2022-10-17T10:33:05.351Z,73.19
2022-10-17T10:35:31.607Z,72.31
2022-10-17T10:37:57.892Z,72.01
2022-10-17T10:40:24.167Z,71.76
2022-10-17T10:42:50.426Z,71.90
2022-10-17T10:45:29.213Z,71.47
2022-10-17T10:48:02.938Z,70.55
2022-10-17T10:50:29.305Z,71.00
2022-10-17T10:52:55.590Z,70.75
2022-10-17T10:55:22.329Z,70.22
2022-10-17T10:57:48.591Z,69.89
2022-10-17T11:00:15.441Z,69.55
2022-10-17T11:02:41.710Z,70.19
2022-10-17T11:05:07.977Z,69.67
2022-10-17T11:07:34.301Z,69.88
2022-10-17T11:10:00.575Z,69.54
2022-10-17T11:12:26.858Z,70.04
2022-10-17T11:14:53.122Z,69.63
2022-10-17T11:17:19.386Z,69.79
2022-10-17T11:19:47.375Z,69.56
2022-10-17T11:22:13.660Z,69.37
2022-10-17T11:24:39.940Z,68.70
2022-10-17T11:27:06.199Z,68.01
2022-10-17T11:29:32.566Z,68.91
2022-10-17T11:31:58.836Z,68.79
2022-10-17T11:34:25.112Z,68.58
2022-10-17T11:36:51.372Z,68.78
2022-10-17T11:39:17.654Z,67.75
2022-10-17T11:41:43.925Z,66.80
2022-10-17T11:44:10.214Z,67.21
2022-10-17T11:46:36.466Z,66.78
2022-10-17T11:49:02.744Z,67.52
2022-10-17T11:54:15.275Z,67.01
2022-10-17T11:56:42.994Z,66.42
2022-10-17T11:59:09.310Z,65.68
2022-10-17T12:01:35.603Z,65.08
2022-10-17T12:04:01.955Z,65.85
2022-10-17T12:06:29.429Z,64.86
2022-10-17T12:08:56.430Z,65.04
2022-10-17T12:11:22.731Z,65.11
2022-10-17T12:13:49.129Z,65.50
2022-10-17T12:16:17.556Z,64.83
2022-10-17T12:18:43.979Z,65.33
2022-10-17T12:21:10.241Z,64.78
2022-10-17T12:23:38.783Z,64.39
2022-10-17T12:26:05.535Z,63.46
2022-10-17T12:28:32.022Z,63.12
2022-10-17T12:30:58.366Z,63.16
2022-10-17T12:33:26.624Z,62.51
2022-10-17T12:35:52.886Z,63.35
2022-10-17T12:38:19.181Z,63.07
2022-10-17T12:40:49.064Z,62.68
2022-10-17T12:43:15.630Z,61.81
2022-10-17T12:45:41.911Z,62.39
2022-10-17T12:48:08.240Z,61.66
2022-10-17T12:50:38.005Z,62.38
2022-10-17T12:53:04.438Z,61.61
2022-10-17T12:55:30.690Z,61.70
2022-10-17T12:57:57.046Z,61.50
2022-10-17T13:00:23.347Z,61.77
2022-10-17T13:02:49.668Z,61.58
2022-10-17T13:05:15.918Z,61.08
2022-10-17T13:07:42.181Z,61.34
2022-10-17T13:10:09.511Z,61.52
2022-10-17T13:12:41.235Z,61.40
2022-10-17T13:15:09.808Z,62.24
2022-10-17T13:17:36.811Z,61.94
2022-10-17T13:20:03.604Z,62.36
2022-10-17T13:22:30.224Z,61.86
2022-10-17T13:24:56.730Z,61.38
2022-10-17T13:27:23.035Z,61.75
2022-10-17T13:29:49.315Z,62.16
2022-10-17T13:32:15.576Z,61.80
2022-10-17T13:34:41.822Z,62.57
2022-10-17T13:37:08.074Z,62.26
2022-10-17T13:39:54.528Z,62.32
2022-10-17T13:42:21.691Z,61.96
2022-10-17T13:44:47.980Z,62.46
2022-10-17T13:47:14.450Z,62.92
2022-10-17T13:49:40.951Z,62.69
2022-10-17T13:52:07.227Z,62.10
2022-10-17T13:54:33.539Z,62.33
2022-10-17T13:56:59.834Z,62.16
2022-10-17T13:59:26.111Z,61.92
2022-10-17T14:01:52.385Z,62.34
2022-10-17T14:04:20.485Z,62.35
2022-10-17T14:06:49.672Z,63.34
2022-10-17T14:09:18.352Z,63.23
2022-10-17T14:11:44.612Z,63.28
2022-10-17T14:14:10.882Z,63.06
2022-10-17T14:16:37.168Z,63.48
2022-10-17T14:19:03.458Z,63.58
2022-10-17T14:21:40.907Z,64.29
2022-10-17T14:24:09.859Z,64.47
2022-10-17T14:26:37.287Z,64.34
2022-10-17T14:29:03.605Z,63.73
2022-10-17T14:31:29.987Z,62.92
2022-10-17T14:33:56.254Z,63.04
2022-10-17T14:36:22.533Z,63.00
2022-10-17T14:38:48.807Z,63.10
2022-10-17T14:41:41.502Z,63.41
2022-10-17T14:44:01.315Z,63.76
2022-10-17T14:46:27.579Z,64.24
2022-10-17T14:48:53.923Z,64.25
2022-10-17T14:51:20.213Z,65.18
2022-10-17T14:53:46.528Z,65.35
2022-10-17T14:56:12.781Z,65.55
2022-10-17T14:58:39.055Z,66.11
2022-10-17T15:01:05.311Z,66.59
2022-10-17T15:03:31.618Z,67.12
2022-10-17T15:05:58.388Z,67.07
2022-10-17T15:08:24.964Z,67.51
2022-10-17T15:10:51.318Z,67.16
2022-10-17T15:13:39.957Z,67.53
2022-10-17T15:16:03.894Z,67.52
2022-10-17T15:18:30.199Z,67.57
2022-10-17T15:21:04.982Z,67.64
2022-10-17T15:23:32.953Z,67.89
2022-10-17T15:25:59.251Z,67.99
2022-10-17T15:28:27.220Z,68.03
2022-10-17T15:30:53.568Z,67.99
2022-10-17T15:33:19.855Z,67.79
2022-10-17T15:35:46.211Z,68.05
2022-10-17T15:38:12.554Z,68.47
2022-10-17T15:40:38.817Z,68.35
2022-10-17T15:43:05.146Z,68.76
2022-10-17T15:45:31.448Z,68.67
2022-10-17T15:47:57.725Z,68.98
2022-10-17T15:50:24.032Z,69.47
2022-10-17T15:52:53.374Z,69.34
2022-10-17T15:55:19.683Z,69.62
2022-10-17T15:57:45.936Z,69.76
2022-10-17T16:00:16.345Z,69.94
2022-10-17T16:02:43.058Z,70.28
2022-10-17T16:05:09.308Z,70.73
2022-10-17T16:07:36.774Z,71.07
2022-10-17T16:10:03.168Z,70.87
2022-10-17T16:12:31.009Z,70.99
2022-10-17T16:14:57.294Z,71.19
2022-10-17T16:17:23.559Z,71.92
2022-10-17T16:19:49.943Z,72.59
2022-10-17T16:22:16.350Z,72.70
2022-10-17T16:24:42.611Z,72.70
2022-10-17T16:27:09.136Z,73.09
2022-10-17T16:29:35.398Z,73.25
2022-10-17T16:32:01.661Z,73.16
2022-10-17T16:34:27.979Z,73.22
2022-10-17T16:36:54.259Z,73.32
2022-10-17T16:39:20.598Z,73.52
2022-10-17T16:41:46.912Z,73.22
2022-10-17T16:44:14.541Z,73.37
2022-10-17T16:46:40.815Z,73.52
2022-10-17T16:49:07.085Z,73.61
2022-10-17T16:51:35.698Z,73.58
2022-10-17T16:54:01.970Z,73.80
2022-10-17T16:56:32.599Z,73.85
2022-10-17T16:58:58.882Z,74.15
2022-10-17T17:01:25.146Z,74.06
2022-10-17T17:03:51.445Z,74.46
2022-10-17T17:06:19.113Z,74.79
2022-10-17T17:08:45.481Z,75.12
2022-10-17T17:11:11.734Z,75.12
2022-10-17T17:13:37.999Z,75.63
2022-10-17T17:16:04.288Z,75.89
2022-10-17T17:18:30.870Z,76.02
2022-10-17T17:20:57.134Z,76.21
2022-10-17T17:23:23.378Z,76.79
2022-10-17T17:25:50.610Z,76.81
2022-10-17T17:28:16.890Z,77.00
2022-10-17T17:30:43.158Z,76.77
2022-10-17T17:33:09.406Z,77.16
2022-10-17T17:35:35.693Z,77.38
2022-10-17T17:38:02.973Z,77.74
2022-10-17T17:40:29.227Z,77.91
2022-10-17T17:42:55.601Z,78.19
2022-10-17T17:45:21.868Z,78.48
2022-10-17T17:47:48.128Z,78.53
2022-10-17T17:50:14.452Z,78.36
2022-10-17T17:52:42.157Z,78.38
2022-10-17T17:55:08.417Z,79.41
2022-10-17T17:57:34.679Z,79.61
2022-10-17T18:00:00.956Z,79.61
2022-10-17T18:02:27.259Z,79.46
2022-10-17T18:04:53.564Z,79.52
2022-10-17T18:07:19.863Z,79.67
2022-10-17T18:09:46.128Z,79.97
2022-10-17T18:12:12.440Z,79.77
2022-10-17T18:14:38.701Z,79.60
2022-10-17T18:17:04.976Z,79.81
2022-10-17T18:19:31.228Z,79.47
2022-10-17T18:21:57.708Z,79.69
2022-10-17T18:24:24.007Z,79.66
2022-10-17T18:26:50.993Z,80.00
2022-10-17T18:29:17.191Z,80.17
2022-10-17T18:31:43.544Z,80.78
2022-10-17T18:34:09.950Z,81.41
2022-10-17T18:36:37.688Z,82.55
2022-10-17T18:39:03.942Z,82.66
2022-10-17T18:41:30.206Z,82.73
2022-10-17T18:43:56.527Z,83.01
2022-10-17T18:46:22.819Z,82.51
2022-10-17T18:48:49.066Z,82.76
2022-10-17T18:51:15.314Z,85.34
2022-10-17T18:53:41.571Z,85.98
2022-10-17T18:56:07.849Z,85.83
2022-10-17T18:58:34.106Z,84.77
2022-10-17T19:01:00.400Z,84.37
2022-10-17T19:03:26.659Z,84.69
2022-10-17T19:05:54.866Z,84.50
2022-10-17T19:08:23.026Z,84.18
2022-10-17T19:10:49.338Z,84.29
2022-10-17T19:13:20.706Z,84.46
2022-10-17T19:15:47.926Z,85.54
2022-10-17T19:18:14.199Z,85.39
2022-10-17T19:20:40.456Z,85.72
2022-10-17T19:23:06.718Z,85.12
2022-10-17T19:25:32.974Z,85.53
2022-10-17T19:27:59.223Z,85.99
2022-10-17T19:30:25.624Z,86.63
2022-10-17T19:32:51.871Z,87.04
2022-10-17T19:35:18.128Z,87.25
2022-10-17T19:37:44.379Z,87.76
2022-10-17T19:40:10.678Z,87.50
2022-10-17T19:42:36.950Z,87.37
2022-10-17T19:45:03.211Z,88.42
2022-10-17T19:47:29.481Z,89.05
2022-10-17T19:49:55.765Z,88.07
2022-10-17T19:52:22.056Z,88.36
2022-10-17T19:54:48.335Z,89.38
2022-10-17T19:57:14.592Z,89.85
2022-10-17T19:59:40.862Z,88.50
2022-10-17T20:02:07.136Z,89.66
2022-10-17T20:04:33.390Z,88.57
2022-10-17T20:07:00.038Z,88.36
2022-10-17T20:09:26.358Z,87.86
2022-10-17T20:11:52.616Z,88.94
2022-10-17T20:14:18.880Z,89.32
2022-10-17T20:16:50.106Z,90.65
2022-10-17T20:19:16.375Z,89.82
2022-10-17T20:21:42.660Z,89.59
2022-10-17T20:24:08.936Z,92.28
2022-10-17T20:26:39.409Z,91.98
2022-10-17T20:29:08.547Z,90.42
2022-10-17T20:31:35.078Z,89.56
2022-10-17T20:34:01.359Z,91.32
2022-10-17T20:36:27.608Z,89.91
2022-10-17T20:38:54.175Z,89.99
2022-10-17T20:41:20.465Z,89.73
2022-10-17T20:43:46.779Z,89.86
2022-10-17T20:46:29.478Z,89.11
2022-10-17T20:48:59.632Z,88.70
2022-10-17T20:51:26.308Z,90.22
2022-10-17T20:53:52.581Z,91.62
2022-10-17T20:56:18.900Z,93.54
2022-10-17T20:58:45.180Z,93.23
2022-10-17T21:01:11.568Z,92.13
2022-10-17T21:03:39.897Z,91.63
2022-10-17T21:06:08.801Z,91.66
2022-10-17T21:08:35.052Z,91.74
2022-10-17T21:11:01.299Z,91.11
2022-10-17T21:13:27.551Z,91.32
2022-10-17T21:15:53.822Z,91.12
2022-10-17T21:18:20.085Z,91.28
2022-10-17T21:20:46.340Z,91.80
2022-10-17T21:23:12.693Z,92.63
2022-10-17T21:25:40.747Z,92.63
2022-10-17T21:28:07.330Z,92.45
2022-10-17T21:30:33.576Z,92.54
2022-10-17T21:32:59.845Z,92.23
2022-10-17T21:35:26.113Z,92.58
2022-10-17T21:37:52.376Z,92.67
2022-10-17T21:40:18.732Z,93.16
2022-10-17T21:42:44.989Z,94.03
2022-10-17T21:45:15.688Z,93.73
2022-10-17T21:48:11.254Z,93.61
2022-10-17T21:50:32.690Z,95.58
2022-10-17T21:52:58.948Z,94.51
2022-10-17T21:55:25.231Z,93.69
2022-10-17T21:57:51.497Z,93.36
2022-10-17T22:00:17.750Z,93.56
2022-10-17T22:02:44.008Z,93.66
2022-10-17T22:05:10.296Z,94.38
2022-10-17T22:07:36.558Z,96.53
2022-10-17T22:10:02.813Z,96.70
2022-10-17T22:12:29.454Z,98.19
2022-10-17T22:14:56.001Z,96.79
2022-10-17T22:17:22.263Z,95.63
2022-10-17T22:19:48.536Z,95.62
2022-10-17T22:22:14.786Z,94.91
2022-10-17T22:24:41.038Z,95.10
2022-10-17T22:27:09.650Z,95.71
2022-10-17T22:29:35.940Z,96.84
2022-10-17T22:32:02.186Z,96.88
2022-10-17T22:34:28.491Z,96.18
2022-10-17T22:36:54.750Z,95.76
2022-10-17T22:39:21.019Z,95.11
2022-10-17T22:41:47.279Z,94.38
2022-10-17T22:44:13.690Z,96.26
2022-10-17T22:46:39.942Z,95.83
2022-10-17T22:49:06.193Z,94.76
2022-10-17T22:51:32.452Z,94.70
2022-10-17T22:53:58.712Z,96.83
2022-10-17T22:56:25.062Z,97.11
2022-10-17T22:58:51.329Z,97.28
2022-10-17T23:01:17.632Z,96.11
2022-10-17T23:03:43.959Z,95.43
2022-10-17T23:06:10.222Z,95.38
2022-10-17T23:08:36.472Z,95.46
2022-10-17T23:11:02.713Z,95.53
2022-10-17T23:13:28.983Z,97.64
2022-10-17T23:15:55.254Z,97.96
2022-10-17T23:18:21.526Z,97.98
2022-10-17T23:20:47.951Z,97.47
2022-10-17T23:23:14.201Z,97.23
2022-10-17T23:25:40.500Z,97.35
2022-10-17T23:28:08.211Z,97.82
2022-10-17T23:30:34.496Z,97.63
2022-10-17T23:33:00.759Z,98.72
2022-10-17T23:35:27.020Z,98.77
2022-10-17T23:37:53.341Z,98.23
2022-10-17T23:40:19.596Z,97.87
2022-10-17T23:42:45.842Z,97.43
2022-10-17T23:45:12.091Z,97.07
2022-10-17T23:47:38.352Z,96.93
2022-10-17T23:50:04.600Z,97.26
2022-10-17T23:52:30.847Z,97.07
2022-10-17T23:54:57.357Z,97.41
2022-10-17T23:57:23.614Z,97.29
2022-10-17T23:59:49.867Z,97.42
